sensor_id;sensor_type;location;lat;lon;timestamp;P1;durP1;ratioP1;P2;durP2;ratioP2
29006;SDS011;16104;48.642;9.008;2024-02-14T00:01:41;12.50;;;6.20;;
29006;SDS011;16104;48.642;9.008;2024-02-14T00:06:37;15.38;;;8.00;;
29006;SDS011;16104;48.642;9.008;2024-02-14T00:11:33;15.90;;;5.15;;
29006;SDS011;16104;48.642;9.008;2024-02-14T00:16:29;7.80;;;4.22;;
29006;SDS011;16104;48.642;9.008;2024-02-14T00:21:27;9.98;;;4.00;;
29006;SDS011;16104;48.642;9.008;2024-02-14T00:26:23;18.08;;;7.45;;
29006;SDS011;16104;48.642;9.008;2024-02-14T00:31:19;17.58;;;7.97;;
29006;SDS011;16104;48.642;9.008;2024-02-14T00:36:14;14.82;;;6.07;;
29006;SDS011;16104;48.642;9.008;2024-02-14T00:41:10;11.23;;;4.63;;
29006;SDS011;16104;48.642;9.008;2024-02-14T00:46:06;9.50;;;4.90;;
29006;SDS011;16104;48.642;9.008;2024-02-14T00:51:01;9.55;;;4.40;;
29006;SDS011;16104;48.642;9.008;2024-02-14T00:55:57;10.25;;;4.40;;
29006;SDS011;16104;48.642;9.008;2024-02-14T05:04:17;8.13;;;2.40;;
29006;SDS011;16104;48.642;9.008;2024-02-14T05:09:13;4.20;;;2.10;;
29006;SDS011;16104;48.642;9.008;2024-02-14T05:14:09;4.35;;;2.00;;
29006;SDS011;16104;48.642;9.008;2024-02-14T05:19:05;4.85;;;1.95;;
29006;SDS011;16104;48.642;9.008;2024-02-14T05:24:01;4.20;;;1.98;;
29006;SDS011;16104;48.642;9.008;2024-02-14T05:28:56;3.42;;;1.92;;
29006;SDS011;16104;48.642;9.008;2024-02-14T05:33:52;3.88;;;1.52;;
29006;SDS011;16104;48.642;9.008;2024-02-14T05:38:47;4.50;;;2.22;;
29006;SDS011;16104;48.642;9.008;2024-02-14T05:43:44;2.95;;;2.03;;
29006;SDS011;16104;48.642;9.008;2024-02-14T05:48:40;5.40;;;2.45;;
29006;SDS011;16104;48.642;9.008;2024-02-14T05:53:35;6.00;;;1.95;;
29006;SDS011;16104;48.642;9.008;2024-02-14T05:58:31;7.53;;;1.90;;
29006;SDS011;16104;48.642;9.008;2024-02-14T06:03:26;4.32;;;2.10;;
29006;SDS011;16104;48.642;9.008;2024-02-14T06:08:22;4.18;;;1.92;;
29006;SDS011;16104;48.642;9.008;2024-02-14T06:13:22;6.05;;;2.10;;
29006;SDS011;16104;48.642;9.008;2024-02-14T06:18:17;4.13;;;1.92;;
29006;SDS011;16104;48.642;9.008;2024-02-14T06:23:12;7.47;;;2.05;;
29006;SDS011;16104;48.642;9.008;2024-02-14T06:28:08;4.18;;;1.88;;
29006;SDS011;16104;48.642;9.008;2024-02-14T06:33:04;5.50;;;1.80;;
29006;SDS011;16104;48.642;9.008;2024-02-14T06:38:00;5.65;;;1.85;;
29006;SDS011;16104;48.642;9.008;2024-02-14T06:42:55;5.97;;;2.10;;
29006;SDS011;16104;48.642;9.008;2024-02-14T06:47:51;6.35;;;1.80;;
29006;SDS011;16104;48.642;9.008;2024-02-14T06:52:47;4.30;;;1.85;;
29006;SDS011;16104;48.642;9.008;2024-02-14T06:57:42;3.95;;;1.60;;
29006;SDS011;16104;48.642;9.008;2024-02-14T07:02:38;3.40;;;1.95;;
29006;SDS011;16104;48.642;9.008;2024-02-14T07:07:34;4.80;;;2.00;;
29006;SDS011;16104;48.642;9.008;2024-02-14T07:12:31;5.82;;;1.98;;
29006;SDS011;16104;48.642;9.008;2024-02-14T07:17:26;10.40;;;2.05;;
29006;SDS011;16104;48.642;9.008;2024-02-14T07:22:22;4.97;;;2.38;;
29006;SDS011;16104;48.642;9.008;2024-02-14T07:27:17;4.05;;;1.80;;
29006;SDS011;16104;48.642;9.008;2024-02-14T07:32:13;4.38;;;1.73;;
29006;SDS011;16104;48.642;9.008;2024-02-14T07:37:08;4.65;;;1.83;;
29006;SDS011;16104;48.642;9.008;2024-02-14T07:42:04;7.43;;;2.35;;
29006;SDS011;16104;48.642;9.008;2024-02-14T07:47:01;4.60;;;2.13;;
29006;SDS011;16104;48.642;9.008;2024-02-14T07:51:57;7.05;;;1.80;;
29006;SDS011;16104;48.642;9.008;2024-02-14T07:56:52;6.68;;;1.80;;
29006;SDS011;16104;48.642;9.008;2024-02-14T08:01:48;7.15;;;1.83;;
29006;SDS011;16104;48.642;9.008;2024-02-14T08:06:46;4.35;;;1.75;;
29006;SDS011;16104;48.642;9.008;2024-02-14T08:11:44;6.95;;;1.65;;
29006;SDS011;16104;48.642;9.008;2024-02-14T08:16:39;5.05;;;1.80;;
29006;SDS011;16104;48.642;9.008;2024-02-14T08:21:36;7.35;;;1.70;;
29006;SDS011;16104;48.642;9.008;2024-02-14T08:26:32;4.18;;;1.75;;
29006;SDS011;16104;48.642;9.008;2024-02-14T08:31:27;4.07;;;1.30;;
29006;SDS011;16104;48.642;9.008;2024-02-14T08:36:23;4.03;;;1.33;;
29006;SDS011;16104;48.642;9.008;2024-02-14T08:41:18;4.30;;;1.38;;
29006;SDS011;16104;48.642;9.008;2024-02-14T08:46:14;5.63;;;1.90;;
29006;SDS011;16104;48.642;9.008;2024-02-14T08:51:12;4.53;;;1.67;;
29006;SDS011;16104;48.642;9.008;2024-02-14T08:56:08;3.03;;;1.35;;
29006;SDS011;16104;48.642;9.008;2024-02-14T09:01:04;2.17;;;1.27;;
29006;SDS011;16104;48.642;9.008;2024-02-14T09:06:00;2.22;;;1.40;;
29006;SDS011;16104;48.642;9.008;2024-02-14T09:10:58;2.83;;;1.40;;
29006;SDS011;16104;48.642;9.008;2024-02-14T09:15:54;3.50;;;1.40;;
29006;SDS011;16104;48.642;9.008;2024-02-14T09:20:49;3.63;;;1.75;;
29006;SDS011;16104;48.642;9.008;2024-02-14T09:25:45;2.55;;;1.30;;
29006;SDS011;16104;48.642;9.008;2024-02-14T09:30:42;3.05;;;1.48;;
29006;SDS011;16104;48.642;9.008;2024-02-14T09:35:38;4.47;;;1.50;;
29006;SDS011;16104;48.642;9.008;2024-02-14T09:40:41;2.67;;;1.33;;
29006;SDS011;16104;48.642;9.008;2024-02-14T09:45:37;5.35;;;1.60;;
29006;SDS011;16104;48.642;9.008;2024-02-14T09:50:35;6.22;;;1.85;;
29006;SDS011;16104;48.642;9.008;2024-02-14T09:55:31;2.10;;;1.10;;
29006;SDS011;16104;48.642;9.008;2024-02-14T10:00:28;3.10;;;1.30;;
29006;SDS011;16104;48.642;9.008;2024-02-14T10:05:26;2.38;;;1.13;;
29006;SDS011;16104;48.642;9.008;2024-02-14T10:10:22;4.32;;;1.50;;
29006;SDS011;16104;48.642;9.008;2024-02-14T10:15:17;3.78;;;1.30;;
29006;SDS011;16104;48.642;9.008;2024-02-14T10:20:16;2.70;;;1.45;;
29006;SDS011;16104;48.642;9.008;2024-02-14T10:25:13;3.70;;;1.42;;
29006;SDS011;16104;48.642;9.008;2024-02-14T10:30:09;4.32;;;1.40;;
29006;SDS011;16104;48.642;9.008;2024-02-14T10:35:06;5.47;;;1.65;;
29006;SDS011;16104;48.642;9.008;2024-02-14T10:40:07;3.97;;;1.60;;
29006;SDS011;16104;48.642;9.008;2024-02-14T10:45:04;2.08;;;1.30;;
29006;SDS011;16104;48.642;9.008;2024-02-14T10:50:01;4.93;;;1.40;;
29006;SDS011;16104;48.642;9.008;2024-02-14T10:55:01;2.13;;;1.37;;
29006;SDS011;16104;48.642;9.008;2024-02-14T11:00:08;2.72;;;1.40;;
29006;SDS011;16104;48.642;9.008;2024-02-14T11:05:14;4.22;;;1.33;;
29006;SDS011;16104;48.642;9.008;2024-02-14T11:10:12;3.05;;;1.10;;
29006;SDS011;16104;48.642;9.008;2024-02-14T11:15:21;3.13;;;1.10;;
29006;SDS011;16104;48.642;9.008;2024-02-14T11:20:21;4.53;;;1.00;;
29006;SDS011;16104;48.642;9.008;2024-02-14T11:25:29;1.63;;;1.00;;
29006;SDS011;16104;48.642;9.008;2024-02-14T11:30:28;1.20;;;0.80;;
29006;SDS011;16104;48.642;9.008;2024-02-14T11:35:24;1.88;;;1.00;;
29006;SDS011;16104;48.642;9.008;2024-02-14T11:40:20;2.08;;;0.50;;
29006;SDS011;16104;48.642;9.008;2024-02-14T11:45:16;1.42;;;0.82;;
29006;SDS011;16104;48.642;9.008;2024-02-14T11:50:11;1.63;;;0.70;;
29006;SDS011;16104;48.642;9.008;2024-02-14T11:55:07;3.03;;;0.75;;
29006;SDS011;16104;48.642;9.008;2024-02-14T12:00:03;0.68;;;0.55;;
29006;SDS011;16104;48.642;9.008;2024-02-14T12:04:59;0.70;;;0.50;;
29006;SDS011;16104;48.642;9.008;2024-02-14T12:09:57;1.05;;;0.60;;
29006;SDS011;16104;48.642;9.008;2024-02-14T12:14:53;1.77;;;0.70;;
29006;SDS011;16104;48.642;9.008;2024-02-14T12:19:49;3.13;;;0.52;;
29006;SDS011;16104;48.642;9.008;2024-02-14T12:24:46;1.75;;;0.60;;
29006;SDS011;16104;48.642;9.008;2024-02-14T12:29:47;0.67;;;0.50;;
29006;SDS011;16104;48.642;9.008;2024-02-14T12:34:43;1.70;;;0.63;;
29006;SDS011;16104;48.642;9.008;2024-02-14T12:39:39;1.48;;;0.40;;
29006;SDS011;16104;48.642;9.008;2024-02-14T12:44:35;1.23;;;0.55;;
29006;SDS011;16104;48.642;9.008;2024-02-14T12:49:31;0.75;;;0.55;;
29006;SDS011;16104;48.642;9.008;2024-02-14T12:54:27;0.73;;;0.40;;
29006;SDS011;16104;48.642;9.008;2024-02-14T12:59:22;1.95;;;0.45;;
29006;SDS011;16104;48.642;9.008;2024-02-14T13:04:18;3.90;;;0.60;;
29006;SDS011;16104;48.642;9.008;2024-02-14T13:09:13;1.38;;;0.52;;
29006;SDS011;16104;48.642;9.008;2024-02-14T13:14:09;2.38;;;0.45;;
29006;SDS011;16104;48.642;9.008;2024-02-14T13:19:05;1.88;;;0.63;;
29006;SDS011;16104;48.642;9.008;2024-02-14T13:24:00;0.40;;;0.40;;
29006;SDS011;16104;48.642;9.008;2024-02-14T13:28:55;0.55;;;0.40;;
29006;SDS011;16104;48.642;9.008;2024-02-14T13:33:51;4.40;;;0.50;;
29006;SDS011;16104;48.642;9.008;2024-02-14T13:38:47;0.50;;;0.50;;
29006;SDS011;16104;48.642;9.008;2024-02-14T13:43:42;2.67;;;0.50;;
29006;SDS011;16104;48.642;9.008;2024-02-14T13:48:37;1.17;;;0.40;;
29006;SDS011;16104;48.642;9.008;2024-02-14T13:53:33;1.10;;;0.60;;
29006;SDS011;16104;48.642;9.008;2024-02-14T13:58:28;1.98;;;0.60;;
29006;SDS011;16104;48.642;9.008;2024-02-14T14:03:24;1.77;;;0.45;;
29006;SDS011;16104;48.642;9.008;2024-02-14T14:08:19;4.50;;;0.57;;
29006;SDS011;16104;48.642;9.008;2024-02-14T14:13:15;1.17;;;0.50;;
29006;SDS011;16104;48.642;9.008;2024-02-14T14:18:11;0.90;;;0.47;;
29006;SDS011;16104;48.642;9.008;2024-02-14T14:23:06;0.40;;;0.40;;
29006;SDS011;16104;48.642;9.008;2024-02-14T14:28:04;0.65;;;0.50;;
29006;SDS011;16104;48.642;9.008;2024-02-14T14:33:00;0.60;;;0.60;;
29006;SDS011;16104;48.642;9.008;2024-02-14T14:37:55;0.60;;;0.60;;
29006;SDS011;16104;48.642;9.008;2024-02-14T14:42:51;0.90;;;0.55;;
29006;SDS011;16104;48.642;9.008;2024-02-14T14:47:47;1.58;;;0.30;;
29006;SDS011;16104;48.642;9.008;2024-02-14T14:52:43;2.13;;;0.70;;
29006;SDS011;16104;48.642;9.008;2024-02-14T14:57:40;2.80;;;0.70;;
29006;SDS011;16104;48.642;9.008;2024-02-14T15:02:39;0.90;;;0.50;;
29006;SDS011;16104;48.642;9.008;2024-02-14T15:07:36;2.53;;;0.57;;
29006;SDS011;16104;48.642;9.008;2024-02-14T15:12:32;1.02;;;0.60;;
29006;SDS011;16104;48.642;9.008;2024-02-14T15:17:29;0.88;;;0.55;;
29006;SDS011;16104;48.642;9.008;2024-02-14T15:22:25;3.20;;;0.52;;
29006;SDS011;16104;48.642;9.008;2024-02-14T15:27:23;2.80;;;0.60;;
29006;SDS011;16104;48.642;9.008;2024-02-14T15:32:18;0.90;;;0.60;;
29006;SDS011;16104;48.642;9.008;2024-02-14T15:37:33;1.27;;;0.73;;
29006;SDS011;16104;48.642;9.008;2024-02-14T15:42:28;4.75;;;1.10;;
29006;SDS011;16104;48.642;9.008;2024-02-14T15:47:24;0.47;;;0.40;;
29006;SDS011;16104;48.642;9.008;2024-02-14T15:52:19;3.55;;;0.60;;
29006;SDS011;16104;48.642;9.008;2024-02-14T15:57:15;1.20;;;0.63;;
29006;SDS011;16104;48.642;9.008;2024-02-14T16:02:11;1.05;;;0.60;;
29006;SDS011;16104;48.642;9.008;2024-02-14T16:07:06;0.75;;;0.60;;
29006;SDS011;16104;48.642;9.008;2024-02-14T16:12:02;0.95;;;0.70;;
29006;SDS011;16104;48.642;9.008;2024-02-14T16:16:57;4.07;;;0.77;;
29006;SDS011;16104;48.642;9.008;2024-02-14T16:21:53;1.30;;;0.80;;
29006;SDS011;16104;48.642;9.008;2024-02-14T16:26:48;0.80;;;0.80;;
29006;SDS011;16104;48.642;9.008;2024-02-14T16:31:44;1.15;;;0.82;;
29006;SDS011;16104;48.642;9.008;2024-02-14T16:36:40;1.25;;;0.82;;
29006;SDS011;16104;48.642;9.008;2024-02-14T16:41:35;1.58;;;1.20;;
29006;SDS011;16104;48.642;9.008;2024-02-14T16:46:32;1.13;;;0.95;;
29006;SDS011;16104;48.642;9.008;2024-02-14T16:51:28;1.45;;;1.10;;
29006;SDS011;16104;48.642;9.008;2024-02-14T16:56:23;1.45;;;1.02;;
29006;SDS011;16104;48.642;9.008;2024-02-14T17:01:19;2.10;;;0.98;;
29006;SDS011;16104;48.642;9.008;2024-02-14T17:06:16;1.00;;;0.90;;
29006;SDS011;16104;48.642;9.008;2024-02-14T17:11:13;1.20;;;0.68;;
29006;SDS011;16104;48.642;9.008;2024-02-14T17:16:10;1.92;;;0.90;;
29006;SDS011;16104;48.642;9.008;2024-02-14T17:21:06;0.85;;;0.82;;
29006;SDS011;16104;48.642;9.008;2024-02-14T17:26:02;0.70;;;0.70;;
29006;SDS011;16104;48.642;9.008;2024-02-14T17:30:57;2.53;;;0.80;;
29006;SDS011;16104;48.642;9.008;2024-02-14T17:35:53;1.25;;;0.88;;
29006;SDS011;16104;48.642;9.008;2024-02-14T17:40:49;2.20;;;0.70;;
29006;SDS011;16104;48.642;9.008;2024-02-14T17:45:45;1.23;;;0.88;;
29006;SDS011;16104;48.642;9.008;2024-02-14T17:50:40;3.58;;;2.67;;
29006;SDS011;16104;48.642;9.008;2024-02-14T17:55:36;1.40;;;1.20;;
29006;SDS011;16104;48.642;9.008;2024-02-14T18:00:31;1.85;;;1.30;;
29006;SDS011;16104;48.642;9.008;2024-02-14T18:05:27;4.22;;;1.00;;
29006;SDS011;16104;48.642;9.008;2024-02-14T18:10:22;1.23;;;1.10;;
29006;SDS011;16104;48.642;9.008;2024-02-14T18:15:18;1.58;;;1.35;;
29006;SDS011;16104;48.642;9.008;2024-02-14T18:20:14;2.13;;;1.20;;
29006;SDS011;16104;48.642;9.008;2024-02-14T18:25:10;1.92;;;1.42;;
29006;SDS011;16104;48.642;9.008;2024-02-14T18:30:06;8.10;;;6.40;;
29006;SDS011;16104;48.642;9.008;2024-02-14T18:35:03;2.90;;;2.60;;
29006;SDS011;16104;48.642;9.008;2024-02-14T18:39:59;2.22;;;1.90;;
29006;SDS011;16104;48.642;9.008;2024-02-14T18:44:55;1.77;;;1.30;;
29006;SDS011;16104;48.642;9.008;2024-02-14T18:49:50;1.73;;;1.50;;
29006;SDS011;16104;48.642;9.008;2024-02-14T18:54:46;3.33;;;1.70;;
29006;SDS011;16104;48.642;9.008;2024-02-14T18:59:41;1.65;;;1.40;;
29006;SDS011;16104;48.642;9.008;2024-02-14T19:04:37;4.03;;;2.60;;
29006;SDS011;16104;48.642;9.008;2024-02-14T19:09:32;1.92;;;1.48;;
29006;SDS011;16104;48.642;9.008;2024-02-14T19:14:28;2.30;;;1.40;;
29006;SDS011;16104;48.642;9.008;2024-02-14T19:19:23;1.85;;;1.50;;
29006;SDS011;16104;48.642;9.008;2024-02-14T19:24:22;4.03;;;1.70;;
29006;SDS011;16104;48.642;9.008;2024-02-14T19:29:17;2.25;;;1.45;;
29006;SDS011;16104;48.642;9.008;2024-02-14T19:34:14;2.75;;;2.45;;
29006;SDS011;16104;48.642;9.008;2024-02-14T19:39:09;3.33;;;2.90;;
29006;SDS011;16104;48.642;9.008;2024-02-14T19:44:05;3.25;;;2.90;;
29006;SDS011;16104;48.642;9.008;2024-02-14T19:49:00;3.38;;;1.58;;
29006;SDS011;16104;48.642;9.008;2024-02-14T19:53:56;1.70;;;1.45;;
29006;SDS011;16104;48.642;9.008;2024-02-14T19:58:51;3.45;;;1.50;;
29006;SDS011;16104;48.642;9.008;2024-02-14T20:03:47;1.73;;;1.40;;
29006;SDS011;16104;48.642;9.008;2024-02-14T20:08:42;2.05;;;1.45;;
29006;SDS011;16104;48.642;9.008;2024-02-14T20:13:38;1.52;;;1.40;;
29006;SDS011;16104;48.642;9.008;2024-02-14T20:18:33;2.30;;;1.52;;
29006;SDS011;16104;48.642;9.008;2024-02-14T20:23:29;4.80;;;2.22;;
29006;SDS011;16104;48.642;9.008;2024-02-14T20:28:24;5.38;;;3.25;;
29006;SDS011;16104;48.642;9.008;2024-02-14T20:33:21;2.88;;;1.60;;
29006;SDS011;16104;48.642;9.008;2024-02-14T20:38:19;3.67;;;1.85;;
29006;SDS011;16104;48.642;9.008;2024-02-14T20:43:14;2.83;;;1.50;;
29006;SDS011;16104;48.642;9.008;2024-02-14T20:48:10;2.45;;;1.70;;
29006;SDS011;16104;48.642;9.008;2024-02-14T20:53:06;3.35;;;2.05;;
29006;SDS011;16104;48.642;9.008;2024-02-14T20:58:02;2.60;;;1.75;;
29006;SDS011;16104;48.642;9.008;2024-02-14T21:02:57;2.00;;;1.60;;
29006;SDS011;16104;48.642;9.008;2024-02-14T21:07:53;2.03;;;1.60;;
29006;SDS011;16104;48.642;9.008;2024-02-14T21:12:48;3.10;;;1.48;;
29006;SDS011;16104;48.642;9.008;2024-02-14T21:17:44;2.75;;;1.40;;
29006;SDS011;16104;48.642;9.008;2024-02-14T21:22:40;2.33;;;1.25;;
29006;SDS011;16104;48.642;9.008;2024-02-14T21:27:36;2.33;;;1.20;;
29006;SDS011;16104;48.642;9.008;2024-02-14T21:32:32;3.75;;;1.55;;
29006;SDS011;16104;48.642;9.008;2024-02-14T21:37:27;2.50;;;1.48;;
29006;SDS011;16104;48.642;9.008;2024-02-14T21:42:23;2.63;;;1.50;;
29006;SDS011;16104;48.642;9.008;2024-02-14T21:47:18;1.73;;;1.40;;
29006;SDS011;16104;48.642;9.008;2024-02-14T21:52:15;3.10;;;1.60;;
29006;SDS011;16104;48.642;9.008;2024-02-14T21:57:10;2.28;;;1.35;;
29006;SDS011;16104;48.642;9.008;2024-02-14T22:02:06;4.63;;;1.67;;
29006;SDS011;16104;48.642;9.008;2024-02-14T22:07:02;2.10;;;1.15;;
29006;SDS011;16104;48.642;9.008;2024-02-14T22:11:58;2.15;;;1.48;;
29006;SDS011;16104;48.642;9.008;2024-02-14T22:16:53;1.92;;;1.48;;
29006;SDS011;16104;48.642;9.008;2024-02-14T22:21:51;2.28;;;1.67;;
29006;SDS011;16104;48.642;9.008;2024-02-14T22:26:46;3.58;;;1.55;;
29006;SDS011;16104;48.642;9.008;2024-02-14T22:31:42;2.70;;;1.88;;
29006;SDS011;16104;48.642;9.008;2024-02-14T22:36:37;5.00;;;1.48;;
29006;SDS011;16104;48.642;9.008;2024-02-14T22:41:33;2.42;;;1.10;;
29006;SDS011;16104;48.642;9.008;2024-02-14T22:46:30;2.60;;;1.30;;
29006;SDS011;16104;48.642;9.008;2024-02-14T22:51:26;3.72;;;1.30;;
29006;SDS011;16104;48.642;9.008;2024-02-14T22:56:22;4.18;;;1.20;;
29006;SDS011;16104;48.642;9.008;2024-02-14T23:01:17;2.83;;;1.70;;
29006;SDS011;16104;48.642;9.008;2024-02-14T23:06:13;2.65;;;1.08;;
29006;SDS011;16104;48.642;9.008;2024-02-14T23:11:09;2.80;;;1.05;;
29006;SDS011;16104;48.642;9.008;2024-02-14T23:16:05;5.65;;;2.45;;
29006;SDS011;16104;48.642;9.008;2024-02-14T23:21:01;5.07;;;2.30;;
29006;SDS011;16104;48.642;9.008;2024-02-14T23:25:57;3.38;;;1.90;;
29006;SDS011;16104;48.642;9.008;2024-02-14T23:30:52;3.08;;;1.80;;
29006;SDS011;16104;48.642;9.008;2024-02-14T23:35:48;3.70;;;1.98;;
29006;SDS011;16104;48.642;9.008;2024-02-14T23:40:44;2.55;;;1.38;;
29006;SDS011;16104;48.642;9.008;2024-02-14T23:45:40;2.05;;;1.45;;
29006;SDS011;16104;48.642;9.008;2024-02-14T23:50:35;2.08;;;1.50;;
29006;SDS011;16104;48.642;9.008;2024-02-14T23:55:31;2.60;;;1.60;;
